Weather at Daniel K Inouye International Airport

Public forecast

Using degrees Fahrenheit for public forecast. Weather courtesy of forecast.io.

Current aviation weather report (METAR) for Daniel K Inouye International Airport

Retrieved 2021/07/28 23:53 UTC (12 minutes ago):

PHNL 282353Z 06021G25KT 10SM FEW023 FEW048 SCT075 BKN220 28/19 A3003

Aviation forecast (TAF) for Daniel K Inouye International Airport

Retrieved 2021-07-29 00:36 UTC (0 seconds ago):

TAF PHNL 282335Z 2900/3006 06014G22KT P6SM FEW025 SCT045 BKN130 FM290800 06010KT P6SM FEW025 SCT045 SCT130 FM292200 06014G22KT P6SM SCT025 BKN045